createdAt,value
2023-07-20T00:00:16.780Z,26.80
2023-07-20T00:02:48.289Z,26.80
2023-07-20T00:05:24.188Z,26.90
2023-07-20T00:07:55.702Z,26.90
2023-07-20T00:10:26.953Z,27.00
2023-07-20T00:12:58.158Z,27.10
2023-07-20T00:15:29.668Z,27.00
2023-07-20T00:18:01.140Z,27.20
2023-07-20T00:20:32.390Z,27.30
2023-07-20T00:23:05.110Z,27.20
2023-07-20T00:25:36.878Z,27.30
2023-07-20T00:28:08.555Z,27.20
2023-07-20T00:30:42.002Z,27.10
2023-07-20T00:33:15.583Z,27.20
2023-07-20T00:35:47.448Z,27.20
2023-07-20T00:38:21.437Z,27.20
2023-07-20T00:40:52.876Z,27.40
2023-07-20T00:43:24.445Z,27.40
2023-07-20T00:45:55.823Z,27.30
2023-07-20T00:48:30.836Z,27.40
2023-07-20T00:51:05.123Z,27.40
2023-07-20T00:53:36.571Z,27.50
2023-07-20T00:56:08.029Z,27.50
2023-07-20T00:58:40.739Z,27.60
2023-07-20T01:01:12.411Z,27.70
2023-07-20T01:03:45.542Z,27.70
2023-07-20T01:06:38.040Z,27.80
2023-07-20T01:09:17.203Z,27.80
2023-07-20T01:12:16.658Z,27.80
2023-07-20T01:14:49.865Z,27.80
2023-07-20T01:17:21.253Z,28.00
2023-07-20T01:19:52.847Z,27.80
2023-07-20T01:23:00.944Z,27.90
2023-07-20T01:25:44.767Z,28.00
2023-07-20T01:28:26.443Z,28.10
2023-07-20T01:31:15.921Z,28.10
2023-07-20T01:33:58.302Z,28.10
2023-07-20T01:36:35.715Z,28.20
2023-07-20T01:39:11.804Z,28.20
2023-07-20T01:41:44.969Z,28.20
2023-07-20T01:44:17.922Z,28.30
2023-07-20T01:46:52.596Z,28.40
2023-07-20T01:49:23.978Z,28.30
2023-07-20T01:51:55.204Z,28.30
2023-07-20T01:54:26.658Z,28.20
2023-07-20T01:56:58.145Z,28.30
2023-07-20T01:59:29.530Z,28.30
2023-07-20T02:02:01.206Z,28.40
2023-07-20T02:04:37.446Z,28.40
2023-07-20T02:07:09.086Z,28.50
2023-07-20T02:09:40.598Z,28.60
2023-07-20T02:12:13.047Z,28.70
2023-07-20T02:14:45.305Z,28.70
2023-07-20T02:17:16.950Z,28.80
2023-07-20T02:19:51.230Z,28.90
2023-07-20T02:22:22.822Z,29.10
2023-07-20T02:24:54.152Z,29.00
2023-07-20T02:27:25.883Z,29.00
2023-07-20T02:29:57.399Z,29.10
2023-07-20T02:32:28.705Z,29.30
2023-07-20T02:35:01.832Z,29.40
2023-07-20T02:37:36.084Z,29.40
2023-07-20T02:40:08.371Z,29.60
2023-07-20T02:42:39.793Z,29.60
2023-07-20T02:45:11.681Z,29.50
2023-07-20T02:47:43.541Z,29.40
2023-07-20T02:50:16.822Z,29.60
2023-07-20T02:52:48.147Z,29.50
2023-07-20T02:55:19.925Z,29.50
2023-07-20T02:57:51.752Z,29.50
2023-07-20T03:00:25.729Z,29.50
2023-07-20T03:02:58.267Z,29.40
2023-07-20T03:05:30.956Z,29.50
2023-07-20T03:08:05.491Z,29.50
2023-07-20T03:10:41.427Z,29.30
2023-07-20T03:13:13.247Z,29.40
2023-07-20T03:15:55.118Z,29.40
2023-07-20T03:18:28.989Z,29.30
2023-07-20T03:21:00.875Z,29.60
2023-07-20T03:23:33.978Z,29.70
2023-07-20T03:26:05.453Z,29.70
2023-07-20T03:28:37.447Z,29.90
2023-07-20T03:31:09.602Z,29.90
2023-07-20T03:33:44.022Z,30.10
2023-07-20T03:36:23.589Z,30.00
2023-07-20T03:38:55.305Z,30.10
2023-07-20T03:41:26.925Z,30.20
2023-07-20T03:43:58.478Z,30.30
2023-07-20T03:46:30.208Z,30.20
2023-07-20T03:49:01.664Z,30.40
2023-07-20T03:51:33.177Z,30.60
2023-07-20T03:54:05.210Z,30.70
2023-07-20T03:56:37.894Z,30.80
2023-07-20T03:59:09.479Z,31.00
2023-07-20T04:01:43.950Z,31.00
2023-07-20T04:04:15.719Z,30.90
2023-07-20T04:06:57.790Z,31.10
2023-07-20T04:09:29.501Z,31.20
2023-07-20T04:12:00.998Z,31.60
2023-07-20T04:14:32.431Z,31.50
2023-07-20T04:17:03.910Z,31.50
2023-07-20T04:19:35.177Z,31.50
2023-07-20T04:22:06.575Z,31.40
2023-07-20T04:24:38.181Z,31.70
2023-07-20T04:27:09.750Z,31.90
2023-07-20T04:29:40.943Z,32.00
2023-07-20T04:32:12.154Z,32.10
2023-07-20T04:34:43.444Z,32.20
2023-07-20T04:37:14.817Z,32.40
2023-07-20T04:39:46.396Z,32.00
2023-07-20T04:42:18.608Z,31.80
2023-07-20T04:44:50.115Z,32.20
2023-07-20T04:47:21.428Z,32.30
2023-07-20T04:49:54.826Z,32.40
2023-07-20T04:52:37.462Z,32.50
2023-07-20T04:55:25.406Z,32.30
2023-07-20T04:57:57.791Z,32.40
2023-07-20T05:00:36.422Z,32.90
2023-07-20T05:03:27.113Z,32.80
2023-07-20T05:05:59.077Z,32.40
2023-07-20T05:08:30.877Z,32.40
2023-07-20T05:11:06.187Z,32.30
2023-07-20T05:13:37.996Z,31.90
2023-07-20T05:16:09.978Z,31.70
2023-07-20T05:18:52.104Z,31.80
2023-07-20T05:21:24.995Z,31.80
2023-07-20T05:23:57.488Z,32.00
2023-07-20T05:26:29.214Z,32.00
2023-07-20T05:29:00.594Z,31.90
2023-07-20T05:31:33.559Z,31.80
2023-07-20T05:34:05.332Z,31.80
2023-07-20T05:36:36.985Z,31.90
2023-07-20T05:39:08.998Z,32.20
2023-07-20T05:41:40.173Z,32.50
2023-07-20T05:44:11.789Z,32.50
2023-07-20T05:46:55.456Z,32.50
2023-07-20T05:49:28.989Z,32.50
2023-07-20T05:52:01.482Z,32.70
2023-07-20T05:54:33.994Z,32.80
2023-07-20T05:57:05.582Z,33.00
2023-07-20T05:59:37.011Z,33.10
2023-07-20T06:02:11.007Z,32.70
2023-07-20T06:04:43.184Z,32.70
2023-07-20T06:10:00.960Z,33.40
2023-07-20T06:15:31.129Z,33.50
2023-07-20T06:18:03.431Z,33.30
2023-07-20T06:20:35.063Z,33.30
2023-07-20T06:23:07.782Z,33.30
2023-07-20T06:25:39.221Z,33.30
2023-07-20T06:28:10.664Z,33.50
2023-07-20T06:30:43.910Z,33.60
2023-07-20T06:33:15.715Z,33.70
2023-07-20T06:35:47.215Z,33.80
2023-07-20T06:41:42.810Z,33.60
2023-07-20T06:43:51.582Z,33.80
2023-07-20T06:46:23.587Z,33.70
2023-07-20T06:51:31.536Z,33.30
2023-07-20T06:54:04.333Z,33.20
2023-07-20T06:56:36.112Z,33.30
2023-07-20T06:59:08.369Z,33.60
2023-07-20T07:01:40.098Z,33.90
2023-07-20T07:04:12.274Z,34.20
2023-07-20T07:06:43.989Z,34.20
2023-07-20T07:09:15.245Z,34.20
2023-07-20T07:11:47.240Z,34.20
2023-07-20T07:14:18.524Z,34.60
2023-07-20T07:16:52.227Z,34.60
2023-07-20T07:19:27.513Z,34.70
2023-07-20T07:22:00.691Z,34.50
2023-07-20T07:24:36.278Z,34.80
2023-07-20T07:27:08.186Z,34.70
2023-07-20T07:29:39.667Z,34.50
2023-07-20T07:32:12.869Z,34.40
2023-07-20T07:34:47.774Z,34.70
2023-07-20T07:37:20.265Z,34.20
2023-07-20T07:39:51.506Z,33.80
2023-07-20T07:42:24.951Z,33.80
2023-07-20T07:44:56.616Z,34.00
2023-07-20T07:47:28.087Z,33.90
2023-07-20T07:50:00.039Z,33.80
2023-07-20T07:52:31.241Z,33.70
2023-07-20T07:57:50.328Z,33.80
2023-07-20T08:00:24.834Z,33.80
2023-07-20T08:02:56.498Z,33.90
2023-07-20T08:05:28.992Z,33.90
2023-07-20T08:08:01.568Z,34.10
2023-07-20T08:10:33.500Z,34.10
2023-07-20T08:13:04.832Z,34.30
2023-07-20T08:15:36.093Z,34.30
2023-07-20T08:18:07.529Z,34.30
2023-07-20T08:20:39.247Z,34.10
2023-07-20T08:23:12.287Z,34.20
2023-07-20T08:25:46.712Z,34.20
2023-07-20T08:28:19.809Z,34.20
2023-07-20T08:30:52.650Z,33.90
2023-07-20T08:33:24.497Z,33.80
2023-07-20T08:35:59.122Z,33.60
2023-07-20T08:38:32.399Z,33.40
2023-07-20T08:41:04.654Z,33.30
2023-07-20T08:43:39.142Z,33.10
2023-07-20T08:48:55.586Z,32.90
2023-07-20T08:51:29.436Z,32.70
2023-07-20T08:54:02.616Z,32.60
2023-07-20T08:56:36.843Z,32.50
2023-07-20T08:59:10.525Z,32.50
2023-07-20T09:01:43.690Z,32.50
2023-07-20T09:04:16.103Z,32.40
2023-07-20T09:06:48.346Z,31.50
2023-07-20T09:09:20.244Z,31.20
2023-07-20T09:11:59.836Z,30.80
2023-07-20T09:14:35.214Z,30.50
2023-07-20T09:17:06.697Z,30.60
2023-07-20T09:19:37.974Z,30.60
2023-07-20T09:22:09.951Z,30.60
2023-07-20T09:24:42.007Z,30.70
2023-07-20T09:27:13.801Z,30.80
2023-07-20T09:29:54.941Z,31.00
2023-07-20T09:32:26.614Z,31.30
2023-07-20T09:35:26.319Z,31.50
2023-07-20T09:51:08.936Z,31.40
2023-07-20T09:53:41.689Z,31.20
2023-07-20T09:56:17.544Z,31.10
2023-07-20T09:58:49.687Z,31.00
2023-07-20T10:01:26.289Z,30.90
2023-07-20T10:04:01.730Z,30.70
2023-07-20T10:06:37.630Z,30.60
2023-07-20T10:09:10.488Z,30.50
2023-07-20T10:11:47.185Z,30.30
2023-07-20T10:14:23.797Z,30.20
2023-07-20T10:17:01.061Z,30.20
2023-07-20T10:19:35.266Z,30.10
2023-07-20T10:22:19.778Z,30.00
2023-07-20T10:24:52.553Z,30.00
2023-07-20T10:27:27.262Z,30.00
2023-07-20T10:30:01.589Z,30.00
2023-07-20T10:32:33.299Z,30.00
2023-07-20T10:35:04.614Z,30.00
2023-07-20T10:38:00.079Z,29.90
2023-07-20T10:40:37.142Z,29.80
2023-07-20T10:45:56.788Z,29.60
2023-07-20T10:48:29.747Z,29.60
2023-07-20T10:51:22.759Z,29.60
2023-07-20T10:53:55.996Z,29.70
2023-07-20T10:56:33.732Z,29.70
2023-07-20T10:59:24.272Z,29.60
2023-07-20T11:02:05.527Z,29.50
2023-07-20T11:04:47.407Z,29.50
2023-07-20T11:07:43.247Z,29.40
2023-07-20T11:10:23.434Z,29.40
2023-07-20T11:13:23.049Z,29.30
2023-07-20T11:16:00.425Z,29.30
2023-07-20T11:18:33.915Z,29.30
2023-07-20T11:21:05.825Z,29.30
2023-07-20T11:23:40.867Z,29.20
2023-07-20T11:26:15.453Z,29.20
2023-07-20T11:28:50.879Z,29.10
2023-07-20T11:31:23.409Z,29.10
2023-07-20T11:33:55.028Z,29.10
2023-07-20T11:39:02.878Z,29.10
2023-07-20T11:41:39.181Z,29.10
2023-07-20T11:44:31.957Z,29.10
2023-07-20T11:49:57.343Z,28.90
2023-07-20T11:52:30.623Z,28.80
2023-07-20T11:55:03.040Z,28.80
2023-07-20T11:57:34.762Z,28.70
2023-07-20T12:00:16.996Z,28.70
2023-07-20T12:02:48.038Z,28.60
2023-07-20T12:05:19.796Z,28.70
2023-07-20T12:07:53.340Z,28.80
2023-07-20T12:10:32.188Z,28.80
2023-07-20T12:13:07.962Z,28.80
2023-07-20T12:15:39.599Z,28.70
2023-07-20T12:18:11.589Z,28.70
2023-07-20T12:20:43.488Z,28.80
2023-07-20T12:23:16.889Z,28.70
2023-07-20T12:25:52.511Z,28.70
2023-07-20T12:28:27.326Z,28.70
2023-07-20T12:31:01.714Z,28.80
2023-07-20T12:33:36.051Z,28.80
2023-07-20T12:36:08.138Z,28.80
2023-07-20T12:38:40.052Z,28.80
2023-07-20T12:41:15.478Z,28.70
2023-07-20T12:43:47.919Z,28.70
2023-07-20T12:46:19.244Z,28.70
2023-07-20T12:48:51.853Z,28.70
2023-07-20T12:51:34.011Z,28.70
2023-07-20T12:54:25.374Z,28.60
2023-07-20T12:59:31.460Z,28.50
2023-07-20T13:02:03.029Z,28.50
2023-07-20T13:04:34.341Z,28.50
2023-07-20T13:09:54.483Z,28.50
2023-07-20T13:12:26.048Z,28.50
2023-07-20T13:14:59.321Z,28.50
2023-07-20T13:17:34.074Z,28.50
2023-07-20T13:20:12.641Z,28.50
2023-07-20T13:22:48.405Z,28.60
2023-07-20T13:25:23.591Z,28.50
2023-07-20T13:30:45.679Z,28.50
2023-07-20T13:33:18.196Z,28.50
2023-07-20T13:35:50.274Z,28.50
2023-07-20T13:38:21.575Z,28.30
2023-07-20T13:40:53.015Z,28.30
2023-07-20T13:46:07.809Z,28.30
2023-07-20T13:48:39.491Z,28.30
2023-07-20T13:51:12.265Z,28.20
2023-07-20T13:58:51.866Z,28.10
2023-07-20T14:01:29.149Z,28.00
2023-07-20T14:04:05.078Z,27.90
2023-07-20T14:06:37.582Z,27.90
2023-07-20T14:09:08.865Z,27.90
2023-07-20T14:14:14.399Z,28.00
2023-07-20T14:16:52.377Z,27.90
2023-07-20T14:19:25.749Z,27.90
2023-07-20T14:24:59.286Z,27.80
2023-07-20T14:27:40.665Z,27.70
2023-07-20T14:30:19.472Z,27.70
2023-07-20T14:32:52.322Z,27.70
2023-07-20T14:38:09.621Z,27.70
2023-07-20T14:40:40.716Z,27.80
2023-07-20T14:43:12.166Z,27.90
2023-07-20T14:45:44.725Z,27.90
2023-07-20T14:48:17.260Z,27.70
2023-07-20T14:50:49.892Z,27.60
2023-07-20T14:53:21.493Z,27.60
2023-07-20T14:55:53.129Z,27.50
2023-07-20T14:58:24.778Z,27.50
2023-07-20T15:00:56.817Z,27.50
2023-07-20T15:03:28.066Z,27.50
2023-07-20T15:05:59.645Z,27.50
2023-07-20T15:08:31.316Z,27.50
2023-07-20T15:11:02.740Z,27.50
2023-07-20T15:13:33.979Z,27.50
2023-07-20T15:16:05.258Z,27.60
2023-07-20T15:18:47.454Z,27.60
2023-07-20T15:21:20.211Z,27.50
2023-07-20T15:23:51.764Z,27.60
2023-07-20T15:26:23.895Z,27.50
2023-07-20T15:28:55.439Z,27.50
2023-07-20T15:34:01.364Z,27.50
2023-07-20T15:36:33.683Z,27.50
2023-07-20T15:39:05.705Z,27.50
2023-07-20T15:41:37.811Z,27.50
2023-07-20T15:44:09.317Z,27.40
2023-07-20T15:46:46.442Z,27.40
2023-07-20T15:49:23.680Z,27.40
2023-07-20T15:51:58.079Z,27.30
2023-07-20T15:54:29.628Z,27.30
2023-07-20T15:57:00.828Z,27.30
2023-07-20T16:02:18.147Z,27.30
2023-07-20T16:04:53.903Z,27.40
2023-07-20T16:07:25.313Z,27.50
2023-07-20T16:10:01.410Z,27.40
2023-07-20T16:15:53.506Z,27.20
2023-07-20T16:18:10.419Z,27.00
2023-07-20T16:20:42.286Z,27.00
2023-07-20T16:23:14.242Z,27.10
2023-07-20T16:25:51.382Z,27.10
2023-07-20T16:28:29.348Z,27.20
2023-07-20T16:33:47.796Z,26.90
2023-07-20T16:36:19.941Z,27.10
2023-07-20T16:39:27.097Z,27.20
2023-07-20T16:44:16.799Z,26.90
2023-07-20T16:49:23.145Z,26.80
2023-07-20T16:51:59.570Z,26.90
2023-07-20T16:54:32.352Z,26.90
2023-07-20T16:57:06.028Z,26.90
2023-07-20T16:59:37.560Z,26.80
2023-07-20T17:02:09.508Z,27.10
2023-07-20T17:04:43.144Z,27.10
2023-07-20T17:09:48.326Z,27.00
2023-07-20T17:12:20.476Z,26.90
2023-07-20T17:14:54.316Z,26.80
2023-07-20T17:17:25.745Z,26.70
2023-07-20T17:22:31.562Z,26.80
2023-07-20T17:30:13.371Z,26.60
2023-07-20T17:32:44.584Z,26.60
2023-07-20T17:35:16.070Z,26.60
2023-07-20T17:45:31.747Z,26.80
2023-07-20T17:48:03.739Z,26.80
2023-07-20T17:50:35.219Z,26.70
2023-07-20T17:53:08.817Z,26.70
2023-07-20T17:55:39.732Z,26.60
2023-07-20T17:58:12.536Z,26.50
2023-07-20T18:00:43.790Z,26.50
2023-07-20T18:03:15.427Z,26.70
2023-07-20T18:05:48.896Z,26.70
2023-07-20T18:08:20.049Z,26.60
2023-07-20T18:10:51.458Z,26.50
2023-07-20T18:13:22.665Z,26.50
2023-07-20T18:15:59.078Z,26.60
2023-07-20T18:18:36.542Z,26.70
2023-07-20T18:21:22.139Z,26.60
2023-07-20T18:23:54.689Z,26.60
2023-07-20T18:26:26.031Z,26.50
2023-07-20T18:28:57.666Z,26.50
2023-07-20T18:31:29.081Z,26.50
2023-07-20T18:34:00.668Z,26.50
2023-07-20T18:36:43.584Z,26.50
2023-07-20T18:39:35.561Z,26.40
2023-07-20T18:42:07.392Z,26.50
2023-07-20T18:44:38.905Z,26.50
2023-07-20T18:47:11.768Z,26.50
2023-07-20T18:49:43.205Z,26.50
2023-07-20T18:52:14.505Z,26.40
2023-07-20T18:54:46.365Z,26.50
2023-07-20T18:57:27.698Z,26.40
2023-07-20T19:00:00.056Z,26.50
2023-07-20T19:02:35.857Z,26.50
2023-07-20T19:05:07.838Z,26.50
2023-07-20T19:07:39.038Z,26.60
2023-07-20T19:10:12.254Z,26.50
2023-07-20T19:12:44.535Z,26.50
2023-07-20T19:15:16.452Z,26.60
2023-07-20T19:17:48.045Z,26.60
2023-07-20T19:20:19.380Z,26.50
2023-07-20T19:22:50.612Z,26.50
2023-07-20T19:25:22.125Z,26.50
2023-07-20T19:27:53.690Z,26.50
2023-07-20T19:30:25.246Z,26.50
2023-07-20T19:32:56.729Z,26.50
2023-07-20T19:35:28.551Z,26.50
2023-07-20T19:37:59.986Z,26.50
2023-07-20T19:40:31.462Z,26.60
2023-07-20T19:43:06.593Z,26.50
2023-07-20T19:45:38.162Z,26.60
2023-07-20T19:48:09.680Z,26.60
2023-07-20T19:50:41.131Z,26.60
2023-07-20T19:55:46.413Z,26.70
2023-07-20T19:58:17.940Z,26.60
2023-07-20T20:05:59.040Z,26.70
2023-07-20T20:08:31.786Z,26.70
2023-07-20T20:13:37.344Z,26.70
2023-07-20T20:16:08.751Z,26.70
2023-07-20T20:18:45.878Z,26.70
2023-07-20T20:21:17.843Z,26.60
2023-07-20T20:23:49.386Z,26.70
2023-07-20T20:26:20.999Z,26.70
2023-07-20T20:28:52.529Z,26.60
2023-07-20T20:31:24.086Z,26.60
2023-07-20T20:33:55.283Z,26.60
2023-07-20T20:36:26.891Z,26.60
2023-07-20T20:38:58.678Z,26.50
2023-07-20T20:41:32.202Z,26.50
2023-07-20T20:44:03.384Z,26.50
2023-07-20T20:46:34.832Z,26.50
2023-07-20T20:49:09.260Z,26.60
2023-07-20T20:51:43.664Z,26.60
2023-07-20T20:54:14.850Z,26.60
2023-07-20T20:56:46.261Z,26.60
2023-07-20T20:59:18.249Z,26.60
2023-07-20T21:01:52.056Z,26.60
2023-07-20T21:04:23.305Z,26.60
2023-07-20T21:06:54.806Z,26.60
2023-07-20T21:09:26.008Z,26.60
2023-07-20T21:11:58.012Z,26.60
2023-07-20T21:14:29.484Z,26.60
2023-07-20T21:17:01.081Z,26.60
2023-07-20T21:19:32.419Z,26.50
2023-07-20T21:22:03.999Z,26.40
2023-07-20T21:24:35.747Z,26.30
2023-07-20T21:27:07.384Z,26.30
2023-07-20T21:29:38.604Z,26.30
2023-07-20T21:32:13.182Z,26.30
2023-07-20T21:34:44.632Z,26.30
2023-07-20T21:37:15.885Z,26.30
2023-07-20T21:39:47.358Z,26.30
2023-07-20T21:42:18.680Z,26.30
2023-07-20T21:44:50.245Z,26.20
2023-07-20T21:47:21.797Z,26.30
2023-07-20T21:49:53.152Z,26.30
2023-07-20T21:52:24.425Z,26.20
2023-07-20T21:54:56.066Z,26.30
2023-07-20T21:57:27.935Z,26.20
2023-07-20T21:59:59.256Z,26.30
2023-07-20T22:02:30.588Z,26.40
2023-07-20T22:05:02.494Z,26.40
2023-07-20T22:07:34.089Z,26.40
2023-07-20T22:10:05.487Z,26.40
2023-07-20T22:12:38.079Z,26.50
2023-07-20T22:15:11.595Z,26.60
2023-07-20T22:17:42.847Z,26.50
2023-07-20T22:20:18.675Z,26.50
2023-07-20T22:22:50.013Z,26.40
2023-07-20T22:25:21.404Z,26.40
2023-07-20T22:27:52.721Z,26.30
2023-07-20T22:30:24.333Z,26.30
2023-07-20T22:32:55.815Z,26.40
2023-07-20T22:35:28.512Z,26.50
2023-07-20T22:38:00.119Z,26.40
2023-07-20T22:40:32.039Z,26.40
2023-07-20T22:43:03.563Z,26.40
2023-07-20T22:45:35.608Z,26.30
2023-07-20T22:48:07.296Z,26.30
2023-07-20T22:53:24.591Z,26.40
2023-07-20T22:55:55.910Z,26.40
2023-07-20T22:58:27.880Z,26.40
2023-07-20T23:00:59.340Z,26.40
2023-07-20T23:03:31.633Z,26.50
2023-07-20T23:06:03.960Z,26.50
2023-07-20T23:08:35.857Z,26.50
2023-07-20T23:11:09.509Z,26.50
2023-07-20T23:13:43.107Z,26.50
2023-07-20T23:16:14.052Z,26.50
2023-07-20T23:18:45.813Z,26.60
2023-07-20T23:21:17.157Z,26.60
2023-07-20T23:23:49.061Z,26.60
2023-07-20T23:26:20.286Z,26.60
2023-07-20T23:28:53.686Z,26.60
2023-07-20T23:31:28.198Z,26.70
2023-07-20T23:33:59.466Z,26.80
2023-07-20T23:36:32.207Z,26.90
2023-07-20T23:39:03.987Z,26.90
2023-07-20T23:41:35.551Z,26.90
2023-07-20T23:44:07.072Z,26.90
2023-07-20T23:46:39.014Z,26.90
2023-07-20T23:49:11.480Z,27.00
2023-07-20T23:51:43.895Z,27.10
2023-07-20T23:54:22.464Z,27.10
2023-07-20T23:56:53.855Z,27.10
2023-07-20T23:59:26.308Z,27.10
